sensor_id;sensor_type;location;lat;lon;timestamp;pressure;altitude;pressure_sealevel;temperature;humidity
71194;BME280;58903;47.210;8.618;2024-02-21T00:01:54;95172.69;;;25.46;38.57
71194;BME280;58903;47.210;8.618;2024-02-21T00:04:19;95167.19;;;25.46;38.89
71194;BME280;58903;47.210;8.618;2024-02-21T00:06:46;95177.72;;;25.48;38.87
71194;BME280;58903;47.210;8.618;2024-02-21T00:09:32;95164.44;;;25.46;39.11
71194;BME280;58903;47.210;8.618;2024-02-21T00:12:27;95169.44;;;25.48;38.94
71194;BME280;58903;47.210;8.618;2024-02-21T00:14:55;95163.69;;;25.46;38.36
71194;BME280;58903;47.210;8.618;2024-02-21T00:17:34;95162.91;;;25.45;38.36
71194;BME280;58903;47.210;8.618;2024-02-21T00:20:00;95167.19;;;25.46;38.95
71194;BME280;58903;47.210;8.618;2024-02-21T00:22:28;95165.66;;;25.45;39.22
71194;BME280;58903;47.210;8.618;2024-02-21T00:25:16;95160.41;;;25.47;39.35
71194;BME280;58903;47.210;8.618;2024-02-21T00:28:16;95165.19;;;25.47;39.11
71194;BME280;58903;47.210;8.618;2024-02-21T00:30:56;95149.66;;;25.43;38.72
71194;BME280;58903;47.210;8.618;2024-02-21T00:33:23;95147.16;;;25.46;38.78
71194;BME280;58903;47.210;8.618;2024-02-21T00:35:49;95143.63;;;25.45;39.09
71194;BME280;58903;47.210;8.618;2024-02-21T00:38:14;95139.38;;;25.44;38.64
71194;BME280;58903;47.210;8.618;2024-02-21T00:40:40;95140.41;;;25.47;39.28
71194;BME280;58903;47.210;8.618;2024-02-21T00:43:06;95140.41;;;25.47;38.68
71194;BME280;58903;47.210;8.618;2024-02-21T00:45:42;95139.16;;;25.48;39.09
71194;BME280;58903;47.210;8.618;2024-02-21T00:48:18;95141.91;;;25.48;38.43
71194;BME280;58903;47.210;8.618;2024-02-21T00:50:45;95143.16;;;25.47;39.11
71194;BME280;58903;47.210;8.618;2024-02-21T00:53:41;95142.41;;;25.46;39.34
71194;BME280;58903;47.210;8.618;2024-02-21T00:56:07;95145.16;;;25.46;38.89
71194;BME280;58903;47.210;8.618;2024-02-21T00:58:43;95134.13;;;25.46;39.27
71194;BME280;58903;47.210;8.618;2024-02-21T01:01:09;95137.41;;;25.45;38.93
71194;BME280;58903;47.210;8.618;2024-02-21T01:03:35;95123.13;;;25.46;38.62
71194;BME280;58903;47.210;8.618;2024-02-21T01:06:01;95114.84;;;25.46;38.48
71194;BME280;58903;47.210;8.618;2024-02-21T01:08:27;95113.59;;;25.47;39.00
71194;BME280;58903;47.210;8.618;2024-02-21T01:10:55;95106.34;;;25.44;38.78
71194;BME280;58903;47.210;8.618;2024-02-21T01:13:23;95108.59;;;25.46;39.04
71194;BME280;58903;47.210;8.618;2024-02-21T01:15:49;95111.34;;;25.46;38.71
71194;BME280;58903;47.210;8.618;2024-02-21T01:18:56;95106.59;;;25.46;39.25
71194;BME280;58903;47.210;8.618;2024-02-21T01:21:39;95114.84;;;25.46;38.94
71194;BME280;58903;47.210;8.618;2024-02-21T01:24:08;95110.84;;;25.47;38.75
71194;BME280;58903;47.210;8.618;2024-02-21T01:26:37;95107.34;;;25.47;38.91
71194;BME280;58903;47.210;8.618;2024-02-21T01:29:05;95103.84;;;25.46;38.36
71194;BME280;58903;47.210;8.618;2024-02-21T01:31:32;95104.34;;;25.45;38.26
71194;BME280;58903;47.210;8.618;2024-02-21T01:34:32;95102.59;;;25.47;38.62
71194;BME280;58903;47.210;8.618;2024-02-21T01:36:58;95102.59;;;25.47;38.91
71194;BME280;58903;47.210;8.618;2024-02-21T01:39:34;95110.59;;;25.45;39.11
71194;BME280;58903;47.210;8.618;2024-02-21T01:42:25;95112.88;;;25.47;38.31
71194;BME280;58903;47.210;8.618;2024-02-21T01:44:52;95109.09;;;25.44;39.18
71194;BME280;58903;47.210;8.618;2024-02-21T01:47:48;95115.63;;;25.47;38.64
71194;BME280;58903;47.210;8.618;2024-02-21T01:50:15;95124.63;;;25.47;38.21
71194;BME280;58903;47.210;8.618;2024-02-21T01:53:14;95120.63;;;25.48;38.31
71194;BME280;58903;47.210;8.618;2024-02-21T01:56:03;95113.59;;;25.47;38.48
71194;BME280;58903;47.210;8.618;2024-02-21T01:58:36;95111.34;;;25.46;38.58
71194;BME280;58903;47.210;8.618;2024-02-21T02:01:03;95098.53;;;25.42;39.18
71194;BME280;58903;47.210;8.618;2024-02-21T02:03:31;95087.81;;;25.45;38.88
71194;BME280;58903;47.210;8.618;2024-02-21T02:05:58;95089.81;;;25.44;38.66
71194;BME280;58903;47.210;8.618;2024-02-21T02:08:43;95083.81;;;25.46;38.69
71194;BME280;58903;47.210;8.618;2024-02-21T02:11:20;95072.03;;;25.45;38.97
71194;BME280;58903;47.210;8.618;2024-02-21T02:13:55;95067.03;;;25.43;38.87
71194;BME280;58903;47.210;8.618;2024-02-21T02:16:23;95060.28;;;25.45;38.53
71194;BME280;58903;47.210;8.618;2024-02-21T02:19:08;95063.28;;;25.47;38.81
71194;BME280;58903;47.210;8.618;2024-02-21T02:24:47;95048.97;;;25.42;38.88
71194;BME280;58903;47.210;8.618;2024-02-21T02:27:17;95043.00;;;25.44;38.39
71194;BME280;58903;47.210;8.618;2024-02-21T02:30:11;95046.00;;;25.46;39.31
71194;BME280;58903;47.210;8.618;2024-02-21T02:32:45;95048.75;;;25.46;38.55
71194;BME280;58903;47.210;8.618;2024-02-21T02:35:28;95036.72;;;25.43;38.51
71194;BME280;58903;47.210;8.618;2024-02-21T02:38:19;95032.25;;;25.46;38.38
71194;BME280;58903;47.210;8.618;2024-02-21T02:40:47;95027.72;;;25.43;38.34
71194;BME280;58903;47.210;8.618;2024-02-21T02:43:21;95023.72;;;25.44;38.80
71194;BME280;58903;47.210;8.618;2024-02-21T02:45:58;95015.94;;;25.42;38.85
71194;BME280;58903;47.210;8.618;2024-02-21T02:48:28;95017.72;;;25.46;38.38
71194;BME280;58903;47.210;8.618;2024-02-21T02:51:01;95015.44;;;25.44;39.19
71194;BME280;58903;47.210;8.618;2024-02-21T02:53:58;95011.44;;;25.45;39.19
71194;BME280;58903;47.210;8.618;2024-02-21T02:56:41;95019.22;;;25.47;38.28
71194;BME280;58903;47.210;8.618;2024-02-21T02:59:08;95011.94;;;25.43;38.75
71194;BME280;58903;47.210;8.618;2024-02-21T03:01:34;95002.44;;;25.45;38.70
71194;BME280;58903;47.210;8.618;2024-02-21T03:04:03;94998.44;;;25.46;39.24
71194;BME280;58903;47.210;8.618;2024-02-21T03:06:32;94990.94;;;25.46;38.37
71194;BME280;58903;47.210;8.618;2024-02-21T03:09:20;94984.91;;;25.48;38.50
71194;BME280;58903;47.210;8.618;2024-02-21T03:11:50;94994.44;;;25.47;38.64
71194;BME280;58903;47.210;8.618;2024-02-21T03:14:33;94991.69;;;25.47;39.08
71194;BME280;58903;47.210;8.618;2024-02-21T03:17:08;94979.41;;;25.48;38.80
71194;BME280;58903;47.210;8.618;2024-02-21T03:19:46;94973.63;;;25.46;38.73
71194;BME280;58903;47.210;8.618;2024-02-21T03:22:15;94973.91;;;25.48;38.82
71194;BME280;58903;47.210;8.618;2024-02-21T03:24:50;94975.41;;;25.49;38.85
71194;BME280;58903;47.210;8.618;2024-02-21T03:27:16;94961.88;;;25.45;38.36
71194;BME280;58903;47.210;8.618;2024-02-21T03:29:43;94953.13;;;25.47;38.88
71194;BME280;58903;47.210;8.618;2024-02-21T03:32:09;94950.38;;;25.47;38.62
71194;BME280;58903;47.210;8.618;2024-02-21T03:34:38;94945.59;;;25.47;38.79
71194;BME280;58903;47.210;8.618;2024-02-21T03:37:03;94938.59;;;25.46;38.53
71194;BME280;58903;47.210;8.618;2024-02-21T03:39:36;94938.59;;;25.46;39.07
71194;BME280;58903;47.210;8.618;2024-02-21T03:42:14;94933.09;;;25.46;39.07
71194;BME280;58903;47.210;8.618;2024-02-21T03:44:42;94930.09;;;25.44;39.28
71194;BME280;58903;47.210;8.618;2024-02-21T03:47:28;94924.81;;;25.46;38.24
71194;BME280;58903;47.210;8.618;2024-02-21T03:50:05;94912.28;;;25.45;38.68
71194;BME280;58903;47.210;8.618;2024-02-21T03:52:43;94917.56;;;25.49;38.80
71194;BME280;58903;47.210;8.618;2024-02-21T03:55:27;94899.28;;;25.46;38.94
71194;BME280;58903;47.210;8.618;2024-02-21T04:01:03;94883.50;;;25.46;38.53
71194;BME280;58903;47.210;8.618;2024-02-21T04:03:30;94880.00;;;25.46;39.18
71194;BME280;58903;47.210;8.618;2024-02-21T04:05:56;94874.50;;;25.46;39.16
71194;BME280;58903;47.210;8.618;2024-02-21T04:08:23;94860.47;;;25.43;38.93
71194;BME280;58903;47.210;8.618;2024-02-21T04:10:49;94863.75;;;25.42;38.28
71194;BME280;58903;47.210;8.618;2024-02-21T04:13:26;94869.75;;;25.46;39.23
71194;BME280;58903;47.210;8.618;2024-02-21T04:15:52;94861.47;;;25.46;38.35
71194;BME280;58903;47.210;8.618;2024-02-21T04:18:28;94865.72;;;25.47;38.66
71194;BME280;58903;47.210;8.618;2024-02-21T04:20:54;94865.72;;;25.47;39.11
71194;BME280;58903;47.210;8.618;2024-02-21T04:23:21;94867.50;;;25.45;38.57
71194;BME280;58903;47.210;8.618;2024-02-21T04:25:51;94860.97;;;25.48;39.01
71194;BME280;58903;47.210;8.618;2024-02-21T04:28:20;94847.22;;;25.48;39.00
71194;BME280;58903;47.210;8.618;2024-02-21T04:30:46;94850.72;;;25.48;38.70
71194;BME280;58903;47.210;8.618;2024-02-21T04:33:13;94858.72;;;25.46;38.48
71194;BME280;58903;47.210;8.618;2024-02-21T04:35:39;94861.75;;;25.48;38.79
71194;BME280;58903;47.210;8.618;2024-02-21T04:38:05;94862.97;;;25.47;38.90
71194;BME280;58903;47.210;8.618;2024-02-21T04:40:32;94859.50;;;25.47;38.38
71194;BME280;58903;47.210;8.618;2024-02-21T04:43:08;94858.22;;;25.48;39.24
71194;BME280;58903;47.210;8.618;2024-02-21T04:45:37;94859.50;;;25.47;38.29
71194;BME280;58903;47.210;8.618;2024-02-21T04:48:05;94864.25;;;25.46;38.89
71194;BME280;58903;47.210;8.618;2024-02-21T04:50:31;94869.75;;;25.46;38.97
71194;BME280;58903;47.210;8.618;2024-02-21T04:52:57;94868.47;;;25.47;39.19
71194;BME280;58903;47.210;8.618;2024-02-21T04:55:33;94864.00;;;25.44;38.76
71194;BME280;58903;47.210;8.618;2024-02-21T04:58:27;94862.97;;;25.47;38.25
71194;BME280;58903;47.210;8.618;2024-02-21T05:00:58;94858.72;;;25.46;38.33
71194;BME280;58903;47.210;8.618;2024-02-21T05:03:24;94855.22;;;25.46;39.09
71194;BME280;58903;47.210;8.618;2024-02-21T05:05:50;94845.72;;;25.47;38.63
71194;BME280;58903;47.210;8.618;2024-02-21T05:08:16;94841.69;;;25.48;38.17
71194;BME280;58903;47.210;8.618;2024-02-21T05:10:42;94842.47;;;25.48;38.46
71194;BME280;58903;47.210;8.618;2024-02-21T05:13:08;94827.94;;;25.48;38.99
71194;BME280;58903;47.210;8.618;2024-02-21T05:15:35;94839.69;;;25.48;38.29
71194;BME280;58903;47.210;8.618;2024-02-21T05:18:01;94835.44;;;25.47;38.69
71194;BME280;58903;47.210;8.618;2024-02-21T05:20:27;94833.44;;;25.48;39.38
71194;BME280;58903;47.210;8.618;2024-02-21T05:22:53;94820.94;;;25.47;38.84
71194;BME280;58903;47.210;8.618;2024-02-21T05:25:21;94822.41;;;25.48;38.52
71194;BME280;58903;47.210;8.618;2024-02-21T05:27:51;94816.16;;;25.47;38.51
71194;BME280;58903;47.210;8.618;2024-02-21T05:30:20;94826.19;;;25.50;38.93
71194;BME280;58903;47.210;8.618;2024-02-21T05:32:56;94826.69;;;25.49;39.07
71194;BME280;58903;47.210;8.618;2024-02-21T05:35:33;94817.41;;;25.46;38.70
71194;BME280;58903;47.210;8.618;2024-02-21T05:38:21;94802.63;;;25.49;38.28
71194;BME280;58903;47.210;8.618;2024-02-21T05:40:48;94803.13;;;25.48;39.32
71194;BME280;58903;47.210;8.618;2024-02-21T05:43:43;94814.91;;;25.48;38.92
71194;BME280;58903;47.210;8.618;2024-02-21T05:46:39;94823.94;;;25.49;38.99
71194;BME280;58903;47.210;8.618;2024-02-21T05:52:37;94836.19;;;25.48;38.61
71194;BME280;58903;47.210;8.618;2024-02-21T05:55:19;94828.69;;;25.48;39.15
71194;BME280;58903;47.210;8.618;2024-02-21T05:57:45;94821.91;;;25.43;39.04
71194;BME280;58903;47.210;8.618;2024-02-21T06:00:11;94822.94;;;25.46;38.37
71194;BME280;58903;47.210;8.618;2024-02-21T06:02:37;94826.44;;;25.47;38.97
71194;BME280;58903;47.210;8.618;2024-02-21T06:05:03;94814.66;;;25.46;38.55
71194;BME280;58903;47.210;8.618;2024-02-21T06:07:33;94813.91;;;25.46;38.80
71194;BME280;58903;47.210;8.618;2024-02-21T06:10:03;94811.91;;;25.46;39.04
71194;BME280;58903;47.210;8.618;2024-02-21T06:12:30;94802.66;;;25.43;38.71
71194;BME280;58903;47.210;8.618;2024-02-21T06:15:07;94795.91;;;25.45;39.13
71194;BME280;58903;47.210;8.618;2024-02-21T06:17:53;94796.63;;;25.45;39.06
71194;BME280;58903;47.210;8.618;2024-02-21T06:20:20;94792.63;;;25.46;39.15
71194;BME280;58903;47.210;8.618;2024-02-21T06:22:46;94786.13;;;25.43;38.27
71194;BME280;58903;47.210;8.618;2024-02-21T06:25:13;94780.84;;;25.46;39.20
71194;BME280;58903;47.210;8.618;2024-02-21T06:27:42;94789.13;;;25.46;39.11
71194;BME280;58903;47.210;8.618;2024-02-21T06:30:08;94791.38;;;25.47;39.14
71194;BME280;58903;47.210;8.618;2024-02-21T06:32:35;94783.88;;;25.42;38.78
71194;BME280;58903;47.210;8.618;2024-02-21T06:35:01;94787.13;;;25.46;39.10
71194;BME280;58903;47.210;8.618;2024-02-21T06:37:32;94793.38;;;25.47;38.71
71194;BME280;58903;47.210;8.618;2024-02-21T06:39:59;94794.13;;;25.47;38.64
71194;BME280;58903;47.210;8.618;2024-02-21T06:42:27;94816.16;;;25.47;38.94
71194;BME280;58903;47.210;8.618;2024-02-21T06:44:54;94813.41;;;25.47;39.15
71194;BME280;58903;47.210;8.618;2024-02-21T06:47:26;94805.13;;;25.47;38.38
71194;BME280;58903;47.210;8.618;2024-02-21T06:50:12;94810.66;;;25.47;38.24
71194;BME280;58903;47.210;8.618;2024-02-21T06:52:49;94809.16;;;25.46;38.65
71194;BME280;58903;47.210;8.618;2024-02-21T06:55:19;94807.66;;;25.45;38.22
71194;BME280;58903;47.210;8.618;2024-02-21T06:58:06;94807.88;;;25.47;38.59
71194;BME280;58903;47.210;8.618;2024-02-21T07:00:39;94819.66;;;25.48;38.20
71194;BME280;58903;47.210;8.618;2024-02-21T07:03:06;94816.16;;;25.47;38.55
71194;BME280;58903;47.210;8.618;2024-02-21T07:05:32;94822.41;;;25.48;38.25
71194;BME280;58903;47.210;8.618;2024-02-21T07:08:00;94823.19;;;25.48;39.02
71194;BME280;58903;47.210;8.618;2024-02-21T07:10:26;94823.19;;;25.48;38.46
71194;BME280;58903;47.210;8.618;2024-02-21T07:12:53;94817.66;;;25.48;38.23
71194;BME280;58903;47.210;8.618;2024-02-21T07:15:19;94824.41;;;25.47;38.69
71194;BME280;58903;47.210;8.618;2024-02-21T07:17:49;94819.41;;;25.46;39.09
71194;BME280;58903;47.210;8.618;2024-02-21T07:20:19;94824.66;;;25.49;38.31
71194;BME280;58903;47.210;8.618;2024-02-21T07:22:50;94826.19;;;25.50;39.04
71194;BME280;58903;47.210;8.618;2024-02-21T07:25:22;94816.69;;;25.51;38.88
71194;BME280;58903;47.210;8.618;2024-02-21T07:28:17;94822.19;;;25.51;38.28
71194;BME280;58903;47.210;8.618;2024-02-21T07:30:43;94815.69;;;25.49;38.52
71194;BME280;58903;47.210;8.618;2024-02-21T07:33:10;94820.69;;;25.50;38.70
71194;BME280;58903;47.210;8.618;2024-02-21T07:35:36;94810.66;;;25.47;39.15
71194;BME280;58903;47.210;8.618;2024-02-21T07:38:12;94819.16;;;25.49;38.84
71194;BME280;58903;47.210;8.618;2024-02-21T07:40:48;94816.16;;;25.47;38.47
71194;BME280;58903;47.210;8.618;2024-02-21T07:43:47;94819.16;;;25.49;38.14
71194;BME280;58903;47.210;8.618;2024-02-21T07:46:27;94812.16;;;25.48;38.79
71194;BME280;58903;47.210;8.618;2024-02-21T07:51:57;94809.16;;;25.46;38.93
71194;BME280;58903;47.210;8.618;2024-02-21T07:54:26;94806.66;;;25.48;38.61
71194;BME280;58903;47.210;8.618;2024-02-21T07:56:51;94802.63;;;25.49;38.91
71194;BME280;58903;47.210;8.618;2024-02-21T07:59:34;94798.38;;;25.48;39.08
71194;BME280;58903;47.210;8.618;2024-02-21T08:02:39;94795.88;;;25.50;38.67
71194;BME280;58903;47.210;8.618;2024-02-21T08:05:05;94788.88;;;25.49;38.02
71194;BME280;58903;47.210;8.618;2024-02-21T08:07:31;94791.63;;;25.49;38.82
71194;BME280;58903;47.210;8.618;2024-02-21T08:09:57;94782.63;;;25.49;38.10
71194;BME280;58903;47.210;8.618;2024-02-21T08:12:36;94779.88;;;25.49;39.06
71194;BME280;58903;47.210;8.618;2024-02-21T08:15:12;94781.34;;;25.50;38.70
71194;BME280;58903;47.210;8.618;2024-02-21T08:17:48;94773.59;;;25.48;38.48
71194;BME280;58903;47.210;8.618;2024-02-21T08:20:16;94764.84;;;25.50;38.38
71194;BME280;58903;47.210;8.618;2024-02-21T08:22:57;94762.06;;;25.50;38.66
71194;BME280;58903;47.210;8.618;2024-02-21T08:25:23;94764.34;;;25.51;38.42
71194;BME280;58903;47.210;8.618;2024-02-21T08:28:08;94766.34;;;25.51;38.45
71194;BME280;58903;47.210;8.618;2024-02-21T08:30:50;94747.56;;;25.49;38.86
71194;BME280;58903;47.210;8.618;2024-02-21T08:33:22;94758.84;;;25.51;38.00
71194;BME280;58903;47.210;8.618;2024-02-21T08:36:24;94761.84;;;25.53;38.51
71194;BME280;58903;47.210;8.618;2024-02-21T08:38:50;94752.06;;;25.52;38.27
71194;BME280;58903;47.210;8.618;2024-02-21T08:41:44;94762.81;;;25.56;37.75
71194;BME280;58903;47.210;8.618;2024-02-21T08:44:10;94751.06;;;25.55;38.34
71194;BME280;58903;47.210;8.618;2024-02-21T08:46:36;94753.84;;;25.55;38.11
71194;BME280;58903;47.210;8.618;2024-02-21T08:49:09;94760.84;;;25.51;38.23
71194;BME280;58903;47.210;8.618;2024-02-21T08:51:51;94760.56;;;25.54;37.78
71194;BME280;58903;47.210;8.618;2024-02-21T08:54:20;94758.59;;;25.55;38.70
71194;BME280;58903;47.210;8.618;2024-02-21T08:56:51;94759.59;;;25.57;38.61
71194;BME280;58903;47.210;8.618;2024-02-21T08:59:19;94752.09;;;25.58;37.61
71194;BME280;58903;47.210;8.618;2024-02-21T09:01:54;94747.53;;;25.60;38.60
71194;BME280;58903;47.210;8.618;2024-02-21T09:04:20;94744.53;;;25.58;37.81
71194;BME280;58903;47.210;8.618;2024-02-21T09:06:49;94745.31;;;25.59;38.17
71194;BME280;58903;47.210;8.618;2024-02-21T09:09:15;94731.53;;;25.59;38.18
71194;BME280;58903;47.210;8.618;2024-02-21T09:11:55;94739.53;;;25.62;38.21
71194;BME280;58903;47.210;8.618;2024-02-21T09:14:30;94731.78;;;25.61;37.65
71194;BME280;58903;47.210;8.618;2024-02-21T09:16:56;94736.53;;;25.60;37.98
71194;BME280;58903;47.210;8.618;2024-02-21T09:19:22;94733.03;;;25.60;38.24
71194;BME280;58903;47.210;8.618;2024-02-21T09:21:48;94741.56;;;25.62;38.23
71194;BME280;58903;47.210;8.618;2024-02-21T09:24:14;94734.78;;;25.63;37.87
71194;BME280;58903;47.210;8.618;2024-02-21T09:27:09;94739.53;;;25.62;37.92
71194;BME280;58903;47.210;8.618;2024-02-21T09:29:56;94737.78;;;25.65;37.61
71194;BME280;58903;47.210;8.618;2024-02-21T09:32:23;94725.28;;;25.64;38.22
71194;BME280;58903;47.210;8.618;2024-02-21T09:35:14;94737.06;;;25.64;37.58
71194;BME280;58903;47.210;8.618;2024-02-21T09:37:40;94737.06;;;25.64;38.02
71194;BME280;58903;47.210;8.618;2024-02-21T09:40:07;94733.03;;;25.65;38.10
71194;BME280;58903;47.210;8.618;2024-02-21T09:42:41;94726.03;;;25.64;37.94
71194;BME280;58903;47.210;8.618;2024-02-21T09:45:42;94731.03;;;25.66;37.79
71194;BME280;58903;47.210;8.618;2024-02-21T09:51:36;94723.28;;;25.64;37.64
71194;BME280;58903;47.210;8.618;2024-02-21T09:54:16;94718.75;;;25.67;38.09
71194;BME280;58903;47.210;8.618;2024-02-21T09:57:20;94713.22;;;25.67;38.55
71194;BME280;58903;47.210;8.618;2024-02-21T10:00:16;94707.00;;;25.66;37.70
71194;BME280;58903;47.210;8.618;2024-02-21T10:03:24;94706.75;;;25.64;38.15
71194;BME280;58903;47.210;8.618;2024-02-21T10:05:49;94707.47;;;25.65;37.62
71194;BME280;58903;47.210;8.618;2024-02-21T10:08:16;94707.00;;;25.66;37.96
71194;BME280;58903;47.210;8.618;2024-02-21T10:10:44;94704.72;;;25.65;38.52
71194;BME280;58903;47.210;8.618;2024-02-21T10:16:39;94714.22;;;25.69;37.61
71194;BME280;58903;47.210;8.618;2024-02-21T10:19:06;94707.47;;;25.70;38.37
71194;BME280;58903;47.210;8.618;2024-02-21T10:21:33;94717.22;;;25.71;38.52
71194;BME280;58903;47.210;8.618;2024-02-21T10:24:26;94700.47;;;25.75;37.86
71194;BME280;58903;47.210;8.618;2024-02-21T10:30:13;94690.69;;;25.74;38.38
71194;BME280;58903;47.210;8.618;2024-02-21T10:32:58;94684.41;;;25.73;37.65
71194;BME280;58903;47.210;8.618;2024-02-21T10:38:43;94677.41;;;25.78;37.54
71194;BME280;58903;47.210;8.618;2024-02-21T10:41:14;94674.41;;;25.76;38.03
71194;BME280;58903;47.210;8.618;2024-02-21T10:43:57;94670.63;;;25.79;37.39
71194;BME280;58903;47.210;8.618;2024-02-21T10:46:24;94665.66;;;25.77;37.57
71194;BME280;58903;47.210;8.618;2024-02-21T10:49:12;94665.88;;;25.79;37.35
71194;BME280;58903;47.210;8.618;2024-02-21T10:51:43;94671.41;;;25.79;37.69
71194;BME280;58903;47.210;8.618;2024-02-21T10:57:02;94660.38;;;25.79;37.38
71194;BME280;58903;47.210;8.618;2024-02-21T10:59:39;94663.63;;;25.83;37.70
71194;BME280;58903;47.210;8.618;2024-02-21T11:02:10;94657.34;;;25.83;37.64
71194;BME280;58903;47.210;8.618;2024-02-21T11:04:37;94652.59;;;25.83;37.47
71194;BME280;58903;47.210;8.618;2024-02-21T11:07:05;94652.59;;;25.83;37.71
71194;BME280;58903;47.210;8.618;2024-02-21T11:10:05;94642.31;;;25.84;37.38
71194;BME280;58903;47.210;8.618;2024-02-21T11:16:06;94633.06;;;25.81;37.61
71194;BME280;58903;47.210;8.618;2024-02-21T11:18:32;94620.78;;;25.82;37.52
71194;BME280;58903;47.210;8.618;2024-02-21T11:21:00;94614.75;;;25.84;37.39
71194;BME280;58903;47.210;8.618;2024-02-21T11:23:37;94604.25;;;25.82;38.27
71194;BME280;58903;47.210;8.618;2024-02-21T11:26:09;94599.97;;;25.87;37.63
71194;BME280;58903;47.210;8.618;2024-02-21T11:28:36;94599.22;;;25.86;38.16
71194;BME280;58903;47.210;8.618;2024-02-21T11:31:08;94588.19;;;25.86;37.58
71194;BME280;58903;47.210;8.618;2024-02-21T11:33:42;94588.19;;;25.86;37.64
71194;BME280;58903;47.210;8.618;2024-02-21T11:36:34;94576.91;;;25.90;37.31
71194;BME280;58903;47.210;8.618;2024-02-21T11:39:04;94575.41;;;25.89;38.14
71194;BME280;58903;47.210;8.618;2024-02-21T11:41:32;94570.66;;;25.89;37.62
71194;BME280;58903;47.210;8.618;2024-02-21T11:47:30;94562.63;;;25.91;38.15
71194;BME280;58903;47.210;8.618;2024-02-21T11:50:04;94554.34;;;25.91;37.45
71194;BME280;58903;47.210;8.618;2024-02-21T11:52:51;94551.84;;;25.93;37.43
71194;BME280;58903;47.210;8.618;2024-02-21T11:55:31;94552.84;;;25.90;37.81
71194;BME280;58903;47.210;8.618;2024-02-21T11:57:57;94540.34;;;25.89;37.94
71194;BME280;58903;47.210;8.618;2024-02-21T12:00:23;94536.06;;;25.88;38.30
71194;BME280;58903;47.210;8.618;2024-02-21T12:03:20;94534.06;;;25.89;37.46
71194;BME280;58903;47.210;8.618;2024-02-21T12:05:45;94530.56;;;25.88;37.96
71194;BME280;58903;47.210;8.618;2024-02-21T12:08:12;94520.28;;;25.89;37.60
71194;BME280;58903;47.210;8.618;2024-02-21T12:10:39;94507.03;;;25.87;37.46
71194;BME280;58903;47.210;8.618;2024-02-21T12:13:08;94507.03;;;25.87;37.92
71194;BME280;58903;47.210;8.618;2024-02-21T12:15:36;94499.78;;;25.84;38.21
71194;BME280;58903;47.210;8.618;2024-02-21T12:18:20;94505.75;;;25.88;37.87
71194;BME280;58903;47.210;8.618;2024-02-21T12:20:49;94493.50;;;25.89;37.40
71194;BME280;58903;47.210;8.618;2024-02-21T12:23:26;94491.22;;;25.93;37.34
71194;BME280;58903;47.210;8.618;2024-02-21T12:26:05;94489.72;;;25.92;37.65
71194;BME280;58903;47.210;8.618;2024-02-21T12:28:40;94487.69;;;25.93;37.82
71194;BME280;58903;47.210;8.618;2024-02-21T12:31:07;94484.22;;;25.92;38.11
71194;BME280;58903;47.210;8.618;2024-02-21T12:33:34;94478.94;;;25.94;38.11
71194;BME280;58903;47.210;8.618;2024-02-21T12:36:00;94481.94;;;25.96;38.03
71194;BME280;58903;47.210;8.618;2024-02-21T12:38:26;94473.44;;;25.94;38.19
71194;BME280;58903;47.210;8.618;2024-02-21T12:40:52;94469.41;;;25.95;38.23
71194;BME280;58903;47.210;8.618;2024-02-21T12:43:24;94470.16;;;25.96;37.37
71194;BME280;58903;47.210;8.618;2024-02-21T12:45:52;94461.59;;;25.99;37.26
71194;BME280;58903;47.210;8.618;2024-02-21T12:48:24;94461.59;;;25.99;37.86
71194;BME280;58903;47.210;8.618;2024-02-21T12:50:56;94455.59;;;26.01;37.24
71194;BME280;58903;47.210;8.618;2024-02-21T12:53:22;94442.03;;;26.03;37.51
71194;BME280;58903;47.210;8.618;2024-02-21T12:56:18;94446.50;;;26.06;37.49
71194;BME280;58903;47.210;8.618;2024-02-21T12:59:17;94437.53;;;26.05;37.49
71194;BME280;58903;47.210;8.618;2024-02-21T13:02:03;94430.72;;;26.06;37.96
71194;BME280;58903;47.210;8.618;2024-02-21T13:04:31;94435.00;;;26.07;37.68
71194;BME280;58903;47.210;8.618;2024-02-21T13:06:57;94424.97;;;26.10;38.01
71194;BME280;58903;47.210;8.618;2024-02-21T13:09:22;94415.44;;;26.11;37.48
71194;BME280;58903;47.210;8.618;2024-02-21T13:11:48;94418.44;;;26.13;37.29
71194;BME280;58903;47.210;8.618;2024-02-21T13:14:32;94414.66;;;26.16;37.87
71194;BME280;58903;47.210;8.618;2024-02-21T13:17:12;94415.66;;;26.19;37.62
71194;BME280;58903;47.210;8.618;2024-02-21T13:19:46;94404.63;;;26.19;37.02
71194;BME280;58903;47.210;8.618;2024-02-21T13:22:12;94402.09;;;26.21;37.76
71194;BME280;58903;47.210;8.618;2024-02-21T13:24:38;94395.53;;;26.24;36.91
71194;BME280;58903;47.210;8.618;2024-02-21T13:27:12;94383.03;;;26.23;37.15
71194;BME280;58903;47.210;8.618;2024-02-21T13:29:39;94381.97;;;26.26;37.03
71194;BME280;58903;47.210;8.618;2024-02-21T13:32:20;94368.41;;;26.28;37.58
71194;BME280;58903;47.210;8.618;2024-02-21T13:34:52;94367.16;;;26.29;37.69
71194;BME280;58903;47.210;8.618;2024-02-21T13:37:31;94359.41;;;26.27;37.46
71194;BME280;58903;47.210;8.618;2024-02-21T13:39:57;94353.16;;;26.27;36.96
71194;BME280;58903;47.210;8.618;2024-02-21T13:42:23;94347.88;;;26.29;36.90
71194;BME280;58903;47.210;8.618;2024-02-21T13:44:55;94345.34;;;26.31;37.41
71194;BME280;58903;47.210;8.618;2024-02-21T13:47:21;94332.81;;;26.30;37.64
71194;BME280;58903;47.210;8.618;2024-02-21T13:50:11;94327.28;;;26.30;37.69
71194;BME280;58903;47.210;8.618;2024-02-21T13:52:57;94324.78;;;26.32;37.50
71194;BME280;58903;47.210;8.618;2024-02-21T13:55:38;94312.25;;;26.31;37.31
71194;BME280;58903;47.210;8.618;2024-02-21T13:58:07;94314.47;;;26.32;36.85
71194;BME280;58903;47.210;8.618;2024-02-21T14:00:35;94301.97;;;26.31;37.39
71194;BME280;58903;47.210;8.618;2024-02-21T14:03:18;94296.72;;;26.28;37.53
71194;BME280;58903;47.210;8.618;2024-02-21T14:05:47;94299.22;;;26.31;37.20
71194;BME280;58903;47.210;8.618;2024-02-21T14:08:14;94301.00;;;26.29;37.46
71194;BME280;58903;47.210;8.618;2024-02-21T14:10:42;94296.50;;;26.26;37.22